Addisleigh Park, New York
Current Conditions -  °F | °C
As of 8:51 PM on Tuesday 21 Oct 2014 (Local Time) from KJFK Reporting Station
Scattered Clouds Scattered Clouds  
Wind Chill: 57°   Ceiling: Unl
Heat Index: 57°   Visibility: 10mi
Dew Point: 51°   Wind: 6mph
Humidity: 81%   Direction: 350°N
Pressure: 29.89"   Gusts: NA
Location:  40.6565°N, 73.7829°W
Report Text: KJFK 220051Z 35005KT 10SM FEW020 SCT035 SCT140 SCT200 14/11 A2989 RMK AO2 SLP121 OCNL LTGIC DSNT NW CB DSNT NW T01390106
Loading
Personal Weather Stations






























Interactive Weather Map
Tropical Storm Tracking
New forecast layout! Learn more

10-Day Weather Forecast

Advertisements
Track Severe Weather on mobile